createdAt,value
2022-08-22T00:00:13.593Z,97698.50
2022-08-22T00:03:06.742Z,97723.56
2022-08-22T00:03:12.735Z,97732.00
2022-08-22T00:06:04.211Z,97696.53
2022-08-22T00:08:46.165Z,97697.16
2022-08-22T00:11:28.984Z,97694.38
2022-08-22T00:14:11.588Z,97689.34
2022-08-22T00:16:50.259Z,97702.28
2022-08-22T00:19:32.435Z,97690.56
2022-08-22T00:22:06.848Z,97689.69
2022-08-22T00:24:43.188Z,97687.81
2022-08-22T00:27:19.452Z,97689.06
2022-08-22T00:29:54.479Z,97694.13
2022-08-22T00:32:34.504Z,97694.34
2022-08-22T00:35:09.223Z,97694.81
2022-08-22T00:37:43.071Z,97692.56
2022-08-22T00:40:31.881Z,97691.59
2022-08-22T00:44:03.780Z,97683.38
2022-08-22T00:47:25.815Z,97685.28
2022-08-22T00:50:26.962Z,97678.00
2022-08-22T00:53:18.705Z,97676.75
2022-08-22T00:56:10.416Z,97680.53
2022-08-22T00:59:28.552Z,97672.66
2022-08-22T01:02:22.372Z,97676.81
2022-08-22T01:05:04.057Z,97681.38
2022-08-22T01:07:55.488Z,97674.97
2022-08-22T01:10:43.192Z,97665.97
2022-08-22T01:13:36.114Z,97664.38
2022-08-22T01:16:28.627Z,97660.13
2022-08-22T01:19:39.937Z,97665.88
2022-08-22T01:23:03.193Z,97655.91
2022-08-22T01:26:12.761Z,97660.81
2022-08-22T01:29:31.823Z,97656.69
2022-08-22T01:32:56.863Z,97654.81
2022-08-22T01:35:58.982Z,97652.44
2022-08-22T01:39:23.462Z,97659.84
2022-08-22T01:42:42.277Z,97647.88
2022-08-22T01:45:51.447Z,97656.69
2022-08-22T01:48:23.435Z,97655.47
2022-08-22T01:50:58.320Z,97659.22
2022-08-22T01:53:40.701Z,97652.31
2022-08-22T01:56:14.960Z,97663.84
2022-08-22T01:58:56.390Z,97667.66
2022-08-22T02:01:47.794Z,97675.97
2022-08-22T02:04:28.032Z,97669.03
2022-08-22T02:07:08.091Z,97673.44
2022-08-22T02:09:48.131Z,97676.91
2022-08-22T02:12:32.592Z,97680.38
2022-08-22T02:15:16.659Z,97679.44
2022-08-22T02:18:03.738Z,97673.44
2022-08-22T02:20:39.378Z,97672.16
2022-08-22T02:23:23.708Z,97675.00
2022-08-22T02:25:57.624Z,97670.44
2022-08-22T02:28:39.120Z,97679.25
2022-08-22T02:31:41.181Z,97681.00
2022-08-22T02:34:34.124Z,97675.94
2022-08-22T02:37:15.320Z,97679.09
2022-08-22T02:39:54.832Z,97683.50
2022-08-22T02:42:36.651Z,97673.09
2022-08-22T02:45:25.474Z,97685.44
2022-08-22T02:48:05.086Z,97675.97
2022-08-22T02:50:44.735Z,97677.91
2022-08-22T02:53:19.842Z,97675.22
2022-08-22T02:55:57.550Z,97677.72
2022-08-22T02:58:39.628Z,97670.94
2022-08-22T03:01:34.636Z,97674.75
2022-08-22T03:04:48.142Z,97672.53
2022-08-22T03:07:32.065Z,97670.16
2022-08-22T03:10:14.902Z,97673.16
2022-08-22T03:12:58.700Z,97678.53
2022-08-22T03:15:37.606Z,97674.09
2022-08-22T03:18:21.473Z,97670.34
2022-08-22T03:21:00.066Z,97673.19
2022-08-22T03:23:42.438Z,97674.44
2022-08-22T03:26:18.472Z,97679.31
2022-08-22T03:28:59.920Z,97665.63
2022-08-22T03:31:32.317Z,97676.34
2022-08-22T03:34:22.928Z,97667.53
2022-08-22T03:37:07.273Z,97675.09
2022-08-22T03:39:59.074Z,97680.44
2022-08-22T03:43:22.612Z,97679.19
2022-08-22T03:46:27.798Z,97677.63
2022-08-22T03:49:28.168Z,97688.97
2022-08-22T03:52:21.182Z,97682.34
2022-08-22T03:55:21.796Z,97684.72
2022-08-22T03:58:29.903Z,97679.81
2022-08-22T04:01:45.800Z,97670.06
2022-08-22T04:04:42.560Z,97683.31
2022-08-22T04:07:52.681Z,97671.66
2022-08-22T04:10:40.630Z,97669.44
2022-08-22T04:13:28.639Z,97671.97
2022-08-22T04:16:37.384Z,97666.91
2022-08-22T04:19:42.780Z,97676.53
2022-08-22T04:22:34.913Z,97682.34
2022-08-22T04:25:13.291Z,97673.56
2022-08-22T04:27:55.922Z,97676.38
2022-08-22T04:30:54.995Z,97672.28
2022-08-22T04:33:30.653Z,97678.09
2022-08-22T04:36:10.225Z,97678.25
2022-08-22T04:38:47.883Z,97675.09
2022-08-22T04:41:25.516Z,97671.78
2022-08-22T04:44:01.916Z,97674.03
2022-08-22T04:46:39.489Z,97664.06
2022-08-22T04:49:14.277Z,97667.69
2022-08-22T04:52:50.449Z,97672.25
2022-08-22T04:55:33.780Z,97676.06
2022-08-22T04:58:37.739Z,97670.06
2022-08-22T05:01:16.708Z,97671.94
2022-08-22T05:03:55.124Z,97675.75
2022-08-22T05:06:29.801Z,97675.75
2022-08-22T05:09:07.118Z,97686.94
2022-08-22T05:11:39.957Z,97682.66
2022-08-22T05:14:17.572Z,97678.41
2022-08-22T05:17:29.004Z,97680.16
2022-08-22T05:20:04.345Z,97690.22
2022-08-22T05:22:37.920Z,97687.38
2022-08-22T05:25:15.064Z,97687.09
2022-08-22T05:27:51.232Z,97683.63
2022-08-22T05:30:31.431Z,97679.50
2022-08-22T05:33:13.520Z,97681.56
2022-08-22T05:36:13.013Z,97684.56
2022-08-22T05:38:50.487Z,97686.78
2022-08-22T05:41:25.603Z,97680.31
2022-08-22T05:43:56.079Z,97686.16
2022-08-22T05:46:31.821Z,97686.00
2022-08-22T05:49:09.107Z,97678.88
2022-08-22T05:51:50.893Z,97690.25
2022-08-22T05:54:31.771Z,97693.09
2022-08-22T05:57:15.141Z,97693.41
2022-08-22T05:59:47.887Z,97689.59
2022-08-22T06:02:23.903Z,97698.41
2022-08-22T06:05:00.923Z,97699.38
2022-08-22T06:07:36.383Z,97707.06
2022-08-22T06:10:22.516Z,97706.88
2022-08-22T06:13:02.228Z,97701.84
2022-08-22T06:15:43.908Z,97696.09
2022-08-22T06:18:26.161Z,97698.63
2022-08-22T06:20:59.518Z,97694.34
2022-08-22T06:23:38.501Z,97695.19
2022-08-22T06:26:20.836Z,97702.72
2022-08-22T06:28:58.525Z,97708.31
2022-08-22T06:31:37.042Z,97703.69
2022-08-22T06:34:15.662Z,97710.59
2022-08-22T06:36:52.145Z,97704.53
2022-08-22T06:39:26.073Z,97707.97
2022-08-22T06:42:02.972Z,97694.19
2022-08-22T06:44:39.582Z,97698.53
2022-08-22T06:47:13.486Z,97697.53
2022-08-22T06:49:45.677Z,97702.44
2022-08-22T06:52:23.379Z,97706.56
2022-08-22T06:55:00.442Z,97711.91
2022-08-22T06:57:36.001Z,97710.94
2022-08-22T07:00:13.314Z,97710.94
2022-08-22T07:02:47.953Z,97715.66
2022-08-22T07:05:36.702Z,97715.25
2022-08-22T07:08:09.258Z,97709.44
2022-08-22T07:10:44.040Z,97706.13
2022-08-22T07:13:17.937Z,97705.25
2022-08-22T07:15:56.314Z,97713.81
2022-08-22T07:18:29.685Z,97717.84
2022-08-22T07:21:04.137Z,97715.00
2022-08-22T07:23:40.537Z,97709.06
2022-08-22T07:26:21.408Z,97715.69
2022-08-22T07:28:57.841Z,97708.09
2022-08-22T07:31:37.195Z,97702.75
2022-08-22T07:34:27.361Z,97707.75
2022-08-22T07:37:03.741Z,97708.66
2022-08-22T07:39:39.665Z,97713.38
2022-08-22T07:42:18.302Z,97707.78
2022-08-22T07:45:04.201Z,97704.81
2022-08-22T07:47:55.379Z,97707.69
2022-08-22T07:50:31.778Z,97702.78
2022-08-22T07:53:19.119Z,97705.00
2022-08-22T07:55:50.199Z,97707.69
2022-08-22T07:58:21.012Z,97708.81
2022-08-22T08:00:51.737Z,97709.59
2022-08-22T08:03:27.215Z,97700.69
2022-08-22T08:05:57.823Z,97714.56
2022-08-22T08:08:42.244Z,97708.47
2022-08-22T08:11:16.596Z,97716.84
2022-08-22T08:13:51.546Z,97703.25
2022-08-22T08:16:26.939Z,97714.81
2022-08-22T08:19:02.759Z,97698.78
2022-08-22T08:21:36.900Z,97704.75
2022-08-22T08:24:14.238Z,97698.22
2022-08-22T08:27:14.247Z,97702.06
2022-08-22T08:29:50.698Z,97712.31
2022-08-22T08:32:20.011Z,97698.75
2022-08-22T08:34:51.546Z,97701.41
2022-08-22T08:37:27.779Z,97699.63
2022-08-22T08:40:00.516Z,97703.34
2022-08-22T08:43:06.336Z,97697.19
2022-08-22T08:46:34.867Z,97695.91
2022-08-22T08:49:35.090Z,97698.72
2022-08-22T08:52:53.139Z,97702.19
2022-08-22T08:55:40.447Z,97688.91
2022-08-22T08:58:41.404Z,97699.06
2022-08-22T09:01:29.538Z,97705.81
2022-08-22T09:04:43.873Z,97703.00
2022-08-22T09:07:57.470Z,97701.09
2022-08-22T09:10:54.581Z,97712.56
2022-08-22T09:13:57.474Z,97707.56
2022-08-22T09:16:53.259Z,97697.63
2022-08-22T09:19:54.693Z,97700.81
2022-08-22T09:22:57.393Z,97700.31
2022-08-22T09:25:38.336Z,97691.03
2022-08-22T09:28:17.798Z,97690.06
2022-08-22T09:31:32.638Z,97692.41
2022-08-22T09:34:16.486Z,97706.94
2022-08-22T09:37:16.349Z,97689.69
2022-08-22T09:40:01.285Z,97690.84
2022-08-22T09:42:44.803Z,97686.50
2022-08-22T09:45:50.262Z,97685.34
2022-08-22T09:48:50.232Z,97694.00
2022-08-22T09:51:38.729Z,97691.97
2022-08-22T09:54:32.683Z,97691.78
2022-08-22T09:57:17.931Z,97687.25
2022-08-22T10:00:22.352Z,97683.84
2022-08-22T10:03:07.336Z,97691.44
2022-08-22T10:05:46.659Z,97713.75
2022-08-22T10:08:32.069Z,97703.91
2022-08-22T10:11:31.534Z,97709.69
2022-08-22T10:14:10.212Z,97712.16
2022-08-22T10:16:59.692Z,97711.06
2022-08-22T10:19:36.716Z,97708.84
2022-08-22T10:22:40.432Z,97709.91
2022-08-22T10:25:31.244Z,97708.41
2022-08-22T10:28:32.613Z,97707.19
2022-08-22T10:31:22.444Z,97701.94
2022-08-22T10:34:05.902Z,97706.06
2022-08-22T10:36:50.377Z,97708.41
2022-08-22T10:39:27.964Z,97703.78
2022-08-22T10:42:27.958Z,97706.69
2022-08-22T10:45:35.798Z,97708.53
2022-08-22T10:48:42.063Z,97701.28
2022-08-22T10:51:28.898Z,97702.13
2022-08-22T10:54:27.557Z,97706.06
2022-08-22T10:57:20.687Z,97707.09
2022-08-22T11:00:00.917Z,97707.22
2022-08-22T11:03:02.691Z,97707.19
2022-08-22T11:05:38.261Z,97711.66
2022-08-22T11:08:49.340Z,97719.75
2022-08-22T11:11:32.710Z,97725.94
2022-08-22T11:14:37.823Z,97735.19
2022-08-22T11:17:31.162Z,97724.31
2022-08-22T11:20:21.442Z,97731.38
2022-08-22T11:23:16.549Z,97737.13
2022-08-22T11:25:58.029Z,97738.22
2022-08-22T11:29:13.209Z,97744.75
2022-08-22T11:32:04.307Z,97735.66
2022-08-22T11:34:53.566Z,97736.16
2022-08-22T11:37:47.290Z,97738.25
2022-08-22T11:40:34.426Z,97740.28
2022-08-22T11:43:32.413Z,97735.03
2022-08-22T11:46:20.039Z,97737.50
2022-08-22T11:49:06.423Z,97732.22
2022-08-22T11:52:04.622Z,97751.34
2022-08-22T11:55:07.235Z,97748.84
2022-08-22T11:57:44.351Z,97753.28
2022-08-22T12:00:27.854Z,97746.53
2022-08-22T12:03:27.809Z,97742.28
2022-08-22T12:06:04.104Z,97749.19
2022-08-22T12:09:13.103Z,97750.28
2022-08-22T12:11:57.082Z,97757.34
2022-08-22T12:14:35.158Z,97757.59
2022-08-22T12:17:55.385Z,97755.22
2022-08-22T12:20:24.644Z,97767.94
2022-08-22T12:23:43.400Z,97755.66
2022-08-22T12:26:30.369Z,97768.63
2022-08-22T12:29:34.093Z,97767.56
2022-08-22T12:33:21.187Z,97761.59
2022-08-22T12:36:19.085Z,97767.69
2022-08-22T12:39:15.560Z,97766.19
2022-08-22T12:42:28.057Z,97760.28
2022-08-22T12:45:26.176Z,97770.50
2022-08-22T12:48:15.041Z,97759.31
2022-08-22T12:50:54.579Z,97763.72
2022-08-22T12:54:00.186Z,97759.16
2022-08-22T12:56:47.212Z,97749.41
2022-08-22T12:59:29.805Z,97758.59
2022-08-22T13:02:12.709Z,97761.91
2022-08-22T13:04:49.615Z,97762.91
2022-08-22T13:07:26.813Z,97755.63
2022-08-22T13:10:04.325Z,97754.84
2022-08-22T13:12:44.082Z,97755.50
2022-08-22T13:15:28.525Z,97760.47
2022-08-22T13:18:25.203Z,97757.38
2022-08-22T13:20:56.480Z,97761.78
2022-08-22T13:23:39.685Z,97763.31
2022-08-22T13:26:31.749Z,97769.03
2022-08-22T13:29:25.824Z,97774.75
2022-08-22T13:32:01.725Z,97770.91
2022-08-22T13:34:40.541Z,97766.00
2022-08-22T13:37:24.391Z,97769.72
2022-08-22T13:40:02.792Z,97762.47
2022-08-22T13:42:40.178Z,97768.19
2022-08-22T13:45:15.508Z,97762.41
2022-08-22T13:47:56.064Z,97759.94
2022-08-22T13:50:35.847Z,97759.94
2022-08-22T13:53:31.058Z,97758.09
2022-08-22T13:56:15.630Z,97763.59
2022-08-22T13:58:48.689Z,97759.28
2022-08-22T14:01:42.004Z,97752.38
2022-08-22T14:04:32.146Z,97753.06
2022-08-22T14:07:31.657Z,97750.00
2022-08-22T14:10:14.782Z,97756.22
2022-08-22T14:13:23.032Z,97747.66
2022-08-22T14:16:01.872Z,97751.91
2022-08-22T14:18:45.569Z,97747.94
2022-08-22T14:21:33.397Z,97745.31
2022-08-22T14:24:20.290Z,97756.53
2022-08-22T14:27:05.112Z,97752.16
2022-08-22T14:29:45.993Z,97754.50
2022-08-22T14:32:47.381Z,97750.81
2022-08-22T14:35:29.127Z,97759.66
2022-08-22T14:38:30.011Z,97756.84
2022-08-22T14:41:06.433Z,97758.06
2022-08-22T14:43:50.799Z,97758.69
2022-08-22T14:46:30.460Z,97759.56
2022-08-22T14:49:32.400Z,97750.50
2022-08-22T14:52:10.464Z,97753.78
2022-08-22T14:54:51.063Z,97750.34
2022-08-22T14:57:21.752Z,97758.13
2022-08-22T14:59:53.647Z,97753.56
2022-08-22T15:02:31.895Z,97761.16
2022-08-22T15:05:16.052Z,97765.31
2022-08-22T15:07:55.985Z,97754.06
2022-08-22T15:10:31.721Z,97758.41
2022-08-22T15:13:08.254Z,97762.13
2022-08-22T15:15:49.356Z,97758.00
2022-08-22T15:18:37.505Z,97749.56
2022-08-22T15:21:12.816Z,97752.88
2022-08-22T15:23:46.710Z,97748.44
2022-08-22T15:26:25.556Z,97747.91
2022-08-22T15:29:03.050Z,97757.06
2022-08-22T15:31:34.220Z,97751.69
2022-08-22T15:34:18.066Z,97746.41
2022-08-22T15:37:09.861Z,97750.28
2022-08-22T15:40:11.928Z,97742.72
2022-08-22T15:42:46.522Z,97738.75
2022-08-22T15:45:33.868Z,97744.28
2022-08-22T15:48:09.346Z,97739.13
2022-08-22T15:50:55.791Z,97741.94
2022-08-22T15:53:30.966Z,97743.19
2022-08-22T15:56:34.267Z,97746.19
2022-08-22T15:59:48.105Z,97741.34
2022-08-22T16:02:35.309Z,97738.47
2022-08-22T16:05:26.557Z,97732.19
2022-08-22T16:08:07.609Z,97743.19
2022-08-22T16:10:43.201Z,97740.53
2022-08-22T16:13:31.870Z,97740.78
2022-08-22T16:16:07.093Z,97740.47
2022-08-22T16:19:22.962Z,97731.41
2022-08-22T16:22:13.528Z,97736.53
2022-08-22T16:25:10.241Z,97737.34
2022-08-22T16:27:56.858Z,97735.56
2022-08-22T16:30:39.501Z,97736.78
2022-08-22T16:33:18.310Z,97739.91
2022-08-22T16:36:44.843Z,97734.09
2022-08-22T16:39:39.654Z,97737.25
2022-08-22T16:42:38.586Z,97740.81
2022-08-22T16:45:22.255Z,97742.59
2022-08-22T16:47:58.172Z,97743.38
2022-08-22T16:50:36.567Z,97745.69
2022-08-22T16:53:11.301Z,97748.03
2022-08-22T16:56:18.317Z,97748.53
2022-08-22T16:59:24.599Z,97753.47
2022-08-22T17:02:26.641Z,97750.53
2022-08-22T17:05:21.178Z,97766.34
2022-08-22T17:08:06.842Z,97769.13
2022-08-22T17:10:59.739Z,97767.78
2022-08-22T17:14:10.057Z,97762.28
2022-08-22T17:17:00.258Z,97763.22
2022-08-22T17:19:47.475Z,97763.84
2022-08-22T17:22:29.143Z,97768.41
2022-08-22T17:25:18.116Z,97761.13
2022-08-22T17:27:56.273Z,97761.47
2022-08-22T17:30:41.284Z,97765.41
2022-08-22T17:33:34.146Z,97766.97
2022-08-22T17:36:26.818Z,97770.13
2022-08-22T17:39:10.192Z,97787.09
2022-08-22T17:41:48.463Z,97770.34
2022-08-22T17:44:25.796Z,97777.25
2022-08-22T17:46:57.808Z,97774.31
2022-08-22T17:49:47.119Z,97779.41
2022-08-22T17:52:25.450Z,97795.09
2022-08-22T17:55:00.153Z,97795.88
2022-08-22T17:57:35.560Z,97791.53
2022-08-22T18:00:11.687Z,97803.50
2022-08-22T18:02:47.886Z,97800.34
2022-08-22T18:05:25.121Z,97794.66
2022-08-22T18:08:05.941Z,97798.22
2022-08-22T18:10:46.780Z,97804.94
2022-08-22T18:13:36.526Z,97810.22
2022-08-22T18:16:15.704Z,97807.59
2022-08-22T18:18:52.753Z,97816.75
2022-08-22T18:21:31.605Z,97810.75
2022-08-22T18:24:19.050Z,97806.47
2022-08-22T18:26:57.750Z,97815.72
2022-08-22T18:29:41.547Z,97813.47
2022-08-22T18:32:23.216Z,97813.81
2022-08-22T18:35:06.877Z,97812.81
2022-08-22T18:37:56.269Z,97818.34
2022-08-22T18:40:49.751Z,97814.31
2022-08-22T18:43:24.368Z,97820.31
2022-08-22T18:46:04.216Z,97821.28
2022-08-22T18:48:59.505Z,97827.00
2022-08-22T18:51:38.154Z,97821.00
2022-08-22T18:54:39.355Z,97818.38
2022-08-22T18:57:26.473Z,97820.56
2022-08-22T19:00:13.152Z,97822.13
2022-08-22T19:03:26.205Z,97831.38
2022-08-22T19:06:44.746Z,97821.72
2022-08-22T19:09:40.306Z,97832.59
2022-08-22T19:12:31.971Z,97829.63
2022-08-22T19:15:32.645Z,97825.28
2022-08-22T19:18:30.278Z,97840.81
2022-08-22T19:21:46.538Z,97832.66
2022-08-22T19:25:09.071Z,97829.31
2022-08-22T19:27:42.010Z,97835.72
2022-08-22T19:30:47.157Z,97834.16
2022-08-22T19:33:29.265Z,97834.25
2022-08-22T19:36:19.210Z,97832.66
2022-08-22T19:39:01.984Z,97834.94
2022-08-22T19:41:52.610Z,97835.91
2022-08-22T19:44:50.273Z,97832.94
2022-08-22T19:47:30.705Z,97832.78
2022-08-22T19:50:07.337Z,97827.28
2022-08-22T19:52:50.465Z,97835.31
2022-08-22T19:55:29.780Z,97828.63
2022-08-22T19:58:09.287Z,97830.22
2022-08-22T20:00:56.385Z,97832.94
2022-08-22T20:03:41.815Z,97841.56
2022-08-22T20:06:40.633Z,97840.53
2022-08-22T20:09:26.893Z,97844.09
2022-08-22T20:12:09.995Z,97846.63
2022-08-22T20:14:47.440Z,97840.16
2022-08-22T20:17:43.428Z,97840.16
2022-08-22T20:20:40.458Z,97832.78
2022-08-22T20:23:20.519Z,97830.94
2022-08-22T20:25:55.628Z,97829.16
2022-08-22T20:28:41.152Z,97840.34
2022-08-22T20:31:23.157Z,97840.44
2022-08-22T20:33:59.770Z,97838.25
2022-08-22T20:36:29.569Z,97852.63
2022-08-22T20:39:04.064Z,97847.91
2022-08-22T20:41:38.682Z,97848.59
2022-08-22T20:44:15.924Z,97850.97
2022-08-22T20:46:55.733Z,97855.69
2022-08-22T20:49:29.971Z,97847.78
2022-08-22T20:52:02.910Z,97853.28
2022-08-22T20:54:38.073Z,97847.38
2022-08-22T20:57:16.216Z,97851.97
2022-08-22T20:59:53.841Z,97850.56
2022-08-22T21:02:28.773Z,97846.16
2022-08-22T21:05:04.951Z,97851.44
2022-08-22T21:07:37.466Z,97854.03
2022-08-22T21:10:33.549Z,97856.88
2022-08-22T21:13:07.903Z,97854.69
2022-08-22T21:15:41.476Z,97856.00
2022-08-22T21:18:14.184Z,97855.53
2022-08-22T21:20:43.709Z,97856.91
2022-08-22T21:23:16.384Z,97855.66
2022-08-22T21:25:54.551Z,97849.94
2022-08-22T21:28:33.886Z,97853.28
2022-08-22T21:31:13.823Z,97849.94
2022-08-22T21:33:49.681Z,97847.59
2022-08-22T21:36:22.480Z,97843.94
2022-08-22T21:38:56.823Z,97847.78
2022-08-22T21:41:35.633Z,97846.53
2022-08-22T21:44:28.727Z,97838.00
2022-08-22T21:47:14.200Z,97838.97
2022-08-22T21:50:08.875Z,97839.00
2022-08-22T21:52:40.229Z,97835.38
2022-08-22T21:55:25.476Z,97837.13
2022-08-22T21:58:36.502Z,97841.22
2022-08-22T22:01:29.078Z,97838.59
2022-08-22T22:03:59.502Z,97834.03
2022-08-22T22:06:30.443Z,97840.66
2022-08-22T22:08:59.599Z,97834.03
2022-08-22T22:11:28.794Z,97842.72
2022-08-22T22:13:57.974Z,97840.34
2022-08-22T22:16:29.672Z,97842.88
2022-08-22T22:18:59.268Z,97841.56
2022-08-22T22:21:30.155Z,97842.81
2022-08-22T22:23:59.239Z,97843.13
2022-08-22T22:26:28.785Z,97847.59
2022-08-22T22:28:59.222Z,97851.25
2022-08-22T22:31:28.417Z,97843.84
2022-08-22T22:33:57.482Z,97843.19
2022-08-22T22:36:29.784Z,97842.50
2022-08-22T22:38:58.988Z,97844.09
2022-08-22T22:41:28.173Z,97842.47
2022-08-22T22:43:57.343Z,97839.31
2022-08-22T22:46:26.957Z,97836.31
2022-08-22T22:48:56.674Z,97831.59
2022-08-22T22:51:26.520Z,97834.28
2022-08-22T22:53:58.666Z,97829.25
2022-08-22T22:56:28.048Z,97834.66
2022-08-22T22:59:00.767Z,97834.03
2022-08-22T23:02:02.991Z,97829.59
2022-08-22T23:04:33.676Z,97834.97
2022-08-22T23:07:03.564Z,97842.25
2022-08-22T23:09:37.928Z,97837.34
2022-08-22T23:12:09.603Z,97834.81
2022-08-22T23:14:38.717Z,97840.03
2022-08-22T23:17:08.990Z,97840.34
2022-08-22T23:19:38.970Z,97846.03
2022-08-22T23:22:09.573Z,97848.88
2022-08-22T23:24:41.261Z,97847.91
2022-08-22T23:27:12.156Z,97853.28
2022-08-22T23:29:42.558Z,97856.13
2022-08-22T23:32:13.779Z,97855.81
2022-08-22T23:34:48.298Z,97858.19
2022-08-22T23:37:20.615Z,97864.31
2022-08-22T23:39:51.378Z,97868.09
2022-08-22T23:42:20.743Z,97869.41
2022-08-22T23:44:49.889Z,97856.44
2022-08-22T23:47:19.089Z,97859.75
2022-08-22T23:49:49.103Z,97862.13
2022-08-22T23:52:18.691Z,97850.94
2022-08-22T23:54:47.863Z,97856.78
2022-08-22T23:57:27.733Z,97853.16
2022-08-22T23:59:58.734Z,97850.13
